UMOO

Mogilev Airport

Mogilev, Belarus
TAF UMOO 251100Z 2512/2521 30007G12MPS 9999 BKN020 TEMPO 2512/2521 34010G15MPS 2100 -SHRA BKN007 BKN020CB BECMG 2518/2520 31007MPS
Issued Valid From Valid To
Sep-25 @ 11:00 UTC
(7 hours ago)
Sep-25 @ 12:00 UTC
(6 hours ago)
Sep-25 @ 21:00 UTC
(in 3 hours)
Sep-25 @ 12:00 to Sep-25 @ 18:00
TAF UMOO 251100Z 2512/2521 30007G12MPS 9999 BKN020
Wind Visibility Clouds
300° at 14 knots
 Gusting to 23 knots
10,000+ meters
  • Broken at 2,000' AGL
Temporary Sep-25 @ 12:00 to Sep-25 @ 21:00
TEMPO 2512/2521 34010G15MPS 2100 -SHRA BKN007 BKN020CB
Wind Visibility Clouds Conditions
340° at 19 knots
 Gusting to 29 knots
2,092 meters
  • Broken at 700' AGL
  • Broken at 2,000' AGL
  • Light Rain
Becoming Sep-25 @ 18:00 to Sep-25 @ 21:00
BECMG 2518/2520 31007MPS
Wind Visibility Clouds
310° at 14 knots 10,000+ meters
  • Broken at 2,000' AGL
TAF UMOO 251100Z 2512/2521 30007G12MPS 9999 BKN020 TEMPO 2512/2521 34010G15MPS 2100 -SHRA BKN007 BKN020CB BECMG 2518/2520 31007MPS
Issued Sep-25 @ 11:00 UTC
(7 hours ago)
Valid From Sep-25 @ 12:00 UTC
(6 hours ago)
Valid To Sep-25 @ 21:00 UTC
(in 3 hours)
Sep-25 @ 12:00 - Sep-25 @ 18:00
Wind Visibility
300° at 14 knots
 Gusting to 23 knots
10,000+ meters
Clouds
  • Broken at 2,000' AGL
Temporary Sep-25 @ 12:00 - Sep-25 @ 21:00
Wind Visibility
340° at 19 knots
 Gusting to 29 knots
2,092 meters
Clouds
  • Broken at 700' AGL
  • Broken at 2,000' AGL
Conditions
  • Light Rain
Becoming Sep-25 @ 18:00 - Sep-25 @ 21:00
Wind Visibility
310° at 14 knots 10,000+ meters
Clouds
  • Broken at 2,000' AGL